createdAt,value
2018-12-14T00:01:27.549Z,41.87
2018-12-14T00:03:56.614Z,43.83
2018-12-14T00:06:25.598Z,42.47
2018-12-14T00:08:54.382Z,40.53
2018-12-14T00:11:23.291Z,38.80
2018-12-14T00:13:52.219Z,42.30
2018-12-14T00:16:21.289Z,40.40
2018-12-14T00:18:50.269Z,44.50
2018-12-14T00:21:19.276Z,39.60
2018-12-14T00:23:48.243Z,40.17
2018-12-14T00:26:17.154Z,39.42
2018-12-14T00:28:46.177Z,37.93
2018-12-14T00:31:15.224Z,44.80
2018-12-14T00:33:44.158Z,46.40
2018-12-14T00:36:13.123Z,38.77
2018-12-14T00:38:42.131Z,43.02
2018-12-14T00:41:11.103Z,44.20
2018-12-14T00:43:40.116Z,42.67
2018-12-14T00:46:09.316Z,39.40
2018-12-14T00:48:38.324Z,44.30
2018-12-14T00:51:07.265Z,47.00
2018-12-14T00:53:36.297Z,40.83
2018-12-14T00:56:05.313Z,39.70
2018-12-14T00:58:34.286Z,42.10
2018-12-14T01:01:03.202Z,42.40
2018-12-14T01:03:32.268Z,46.50
2018-12-14T01:06:01.352Z,38.50
2018-12-14T01:08:30.242Z,39.53
2018-12-14T01:10:59.358Z,44.20
2018-12-14T01:13:28.833Z,48.87
2018-12-14T01:15:57.847Z,41.53
2018-12-14T01:18:26.867Z,39.43
2018-12-14T01:20:56.339Z,37.73
2018-12-14T01:23:25.354Z,44.30
2018-12-14T01:25:54.350Z,37.57
2018-12-14T01:28:23.316Z,39.40
2018-12-14T01:30:52.356Z,39.87
2018-12-14T01:33:21.308Z,34.60
2018-12-14T01:35:50.280Z,40.77
2018-12-14T01:38:19.680Z,37.43
2018-12-14T01:40:48.629Z,41.27
2018-12-14T01:43:17.682Z,35.27
2018-12-14T01:45:46.643Z,38.07
2018-12-14T01:48:15.503Z,35.07
2018-12-14T01:50:44.482Z,35.30
2018-12-14T01:53:13.473Z,34.37
2018-12-14T01:55:42.446Z,34.93
2018-12-14T01:58:11.450Z,42.90
2018-12-14T02:00:40.614Z,38.27
2018-12-14T02:03:09.725Z,41.97
2018-12-14T02:05:38.636Z,34.00
2018-12-14T02:08:07.720Z,41.47
2018-12-14T02:10:36.715Z,35.93
2018-12-14T02:13:05.601Z,35.17
2018-12-14T02:15:34.828Z,35.40
2018-12-14T02:18:03.845Z,34.37
2018-12-14T02:20:32.908Z,35.67
2018-12-14T02:23:01.991Z,36.73
2018-12-14T02:25:30.874Z,35.20
2018-12-14T02:27:59.882Z,38.33
2018-12-14T02:30:40.690Z,37.17
2018-12-14T02:33:09.755Z,36.83
2018-12-14T02:35:38.742Z,37.67
2018-12-14T02:38:07.875Z,35.90
2018-12-14T02:40:36.852Z,43.27
2018-12-14T02:43:05.923Z,39.73
2018-12-14T02:45:35.034Z,35.47
2018-12-14T02:48:04.001Z,38.65
2018-12-14T02:50:32.928Z,39.47
2018-12-14T02:53:01.923Z,39.53
2018-12-14T02:55:31.005Z,40.43
2018-12-14T02:58:00.005Z,34.10
2018-12-14T03:00:29.138Z,39.80
2018-12-14T03:02:58.286Z,35.80
2018-12-14T03:05:27.363Z,36.20
2018-12-14T03:07:56.263Z,43.33
2018-12-14T03:10:25.247Z,33.53
2018-12-14T03:12:54.156Z,39.10
2018-12-14T03:15:23.149Z,37.17
2018-12-14T03:17:52.147Z,40.07
2018-12-14T03:20:21.145Z,33.20
2018-12-14T03:22:50.145Z,35.67
2018-12-14T03:25:19.176Z,29.87
2018-12-14T03:27:48.225Z,35.47
2018-12-14T03:30:17.193Z,35.13
2018-12-14T03:32:46.105Z,36.40
2018-12-14T03:35:15.078Z,30.87
2018-12-14T03:37:44.000Z,33.87
2018-12-14T03:40:13.277Z,35.03
2018-12-14T03:42:42.267Z,36.13
2018-12-14T03:45:11.364Z,31.07
2018-12-14T03:47:40.251Z,34.20
2018-12-14T03:50:09.253Z,36.90
2018-12-14T03:52:38.240Z,35.50
2018-12-14T03:55:07.445Z,37.47
2018-12-14T03:57:36.366Z,33.47
2018-12-14T04:00:06.658Z,37.37
2018-12-14T04:02:36.155Z,35.43
2018-12-14T04:05:05.556Z,34.63
2018-12-14T04:07:34.442Z,36.90
2018-12-14T04:10:03.658Z,35.50
2018-12-14T04:12:32.541Z,36.47
2018-12-14T04:15:01.447Z,42.90
2018-12-14T04:17:30.539Z,35.33
2018-12-14T04:19:59.428Z,39.47
2018-12-14T04:22:28.432Z,38.83
2018-12-14T04:24:57.294Z,36.90
2018-12-14T04:27:26.195Z,37.93
2018-12-14T04:29:55.192Z,39.60
2018-12-14T04:32:24.083Z,41.63
2018-12-14T04:34:52.999Z,38.37
2018-12-14T04:37:22.046Z,38.20
2018-12-14T04:39:50.989Z,39.07
2018-12-14T04:42:19.974Z,39.17
2018-12-14T04:44:48.832Z,42.50
2018-12-14T04:47:18.054Z,40.83
2018-12-14T04:49:47.180Z,37.40
2018-12-14T04:52:16.237Z,40.40
2018-12-14T04:54:45.169Z,39.67
2018-12-14T04:57:14.149Z,39.47
2018-12-14T04:59:43.235Z,41.63
2018-12-14T05:02:12.331Z,44.47
2018-12-14T05:04:41.236Z,35.73
2018-12-14T05:07:10.305Z,46.20
2018-12-14T05:09:39.297Z,40.27
2018-12-14T05:12:08.287Z,46.83
2018-12-14T05:14:37.184Z,36.63
2018-12-14T05:17:06.278Z,40.70
2018-12-14T05:19:35.185Z,36.93
2018-12-14T05:22:04.516Z,41.40
2018-12-14T05:24:33.443Z,41.00
2018-12-14T05:27:02.700Z,48.67
2018-12-14T05:29:31.653Z,41.63
2018-12-14T05:32:00.714Z,37.10
2018-12-14T05:34:29.639Z,50.50
2018-12-14T05:36:58.711Z,38.50
2018-12-14T05:39:27.644Z,38.20
2018-12-14T05:41:56.726Z,39.67
2018-12-14T05:44:25.641Z,39.03
2018-12-14T05:46:54.596Z,38.43
2018-12-14T05:49:23.519Z,37.27
2018-12-14T05:51:52.375Z,42.87
2018-12-14T05:54:21.321Z,37.83
2018-12-14T05:56:50.421Z,42.73
2018-12-14T05:59:19.324Z,41.27
2018-12-14T06:01:48.364Z,40.13
2018-12-14T06:04:17.293Z,44.77
2018-12-14T06:06:46.608Z,41.10
2018-12-14T06:09:15.722Z,46.60
2018-12-14T06:11:44.633Z,45.97
2018-12-14T06:14:13.522Z,45.30
2018-12-14T06:16:42.428Z,38.13
2018-12-14T06:19:11.408Z,43.17
2018-12-14T06:21:40.369Z,46.90
2018-12-14T06:24:09.313Z,42.23
2018-12-14T06:26:38.288Z,41.80
2018-12-14T06:29:07.189Z,45.50
2018-12-14T06:31:36.215Z,45.07
2018-12-14T06:34:05.088Z,43.67
2018-12-14T06:36:34.063Z,47.60
2018-12-14T06:39:04.296Z,39.10
2018-12-14T06:41:33.324Z,46.93
2018-12-14T06:44:02.280Z,42.30
2018-12-14T06:46:31.323Z,44.53
2018-12-14T06:49:00.365Z,43.40
2018-12-14T06:51:29.390Z,45.63
2018-12-14T06:53:58.345Z,46.47
2018-12-14T06:56:27.334Z,40.73
2018-12-14T06:58:56.256Z,44.00
2018-12-14T07:01:25.248Z,39.57
2018-12-14T07:03:54.440Z,38.17
2018-12-14T07:06:23.457Z,41.07
2018-12-14T07:08:52.430Z,41.13
2018-12-14T07:11:21.424Z,50.55
2018-12-14T07:13:50.401Z,47.10
2018-12-14T07:16:19.634Z,38.07
2018-12-14T07:18:48.797Z,46.02
2018-12-14T07:21:17.914Z,37.63
2018-12-14T07:23:47.003Z,40.43
2018-12-14T07:26:16.083Z,42.40
2018-12-14T07:28:45.019Z,43.03
2018-12-14T07:31:13.981Z,40.73
2018-12-14T07:33:43.212Z,40.33
2018-12-14T07:36:12.178Z,42.47
2018-12-14T07:38:41.156Z,35.00
2018-12-14T07:41:10.186Z,35.97
2018-12-14T07:43:39.335Z,36.93
2018-12-14T07:46:08.476Z,47.30
2018-12-14T07:48:37.435Z,40.40
2018-12-14T07:51:06.521Z,44.17
2018-12-14T07:53:35.365Z,39.80
2018-12-14T07:56:04.341Z,41.87
2018-12-14T07:58:33.225Z,48.47
2018-12-14T08:01:02.318Z,49.45
2018-12-14T08:03:31.298Z,45.47
2018-12-14T08:06:00.029Z,43.80
2018-12-14T08:08:29.035Z,49.53
2018-12-14T08:10:57.880Z,44.70
2018-12-14T08:13:26.953Z,41.10
2018-12-14T08:15:55.893Z,47.67
2018-12-14T08:18:24.742Z,43.00
2018-12-14T08:20:53.656Z,41.00
2018-12-14T08:23:22.629Z,41.03
2018-12-14T08:25:51.519Z,41.27
2018-12-14T08:28:20.688Z,44.40
2018-12-14T08:30:49.798Z,46.60
2018-12-14T08:33:18.695Z,42.93
2018-12-14T08:35:47.612Z,43.93
2018-12-14T08:38:16.809Z,47.03
2018-12-14T08:40:45.813Z,49.37
2018-12-14T08:43:15.109Z,50.97
2018-12-14T08:45:44.221Z,39.93
2018-12-14T08:48:13.320Z,42.83
2018-12-14T08:50:42.442Z,42.30
2018-12-14T08:53:11.703Z,52.60
2018-12-14T08:55:40.801Z,48.70
2018-12-14T08:58:09.782Z,48.67
2018-12-14T09:00:38.741Z,43.03
2018-12-14T09:03:07.666Z,41.63
2018-12-14T09:05:36.650Z,49.37
2018-12-14T09:08:05.866Z,43.10
2018-12-14T09:10:34.928Z,52.57
2018-12-14T09:13:04.025Z,45.93
2018-12-14T09:15:32.935Z,41.83
2018-12-14T09:18:01.907Z,43.90
2018-12-14T09:20:30.934Z,52.63
2018-12-14T09:23:00.235Z,46.83
2018-12-14T09:25:29.219Z,48.23
2018-12-14T09:27:58.103Z,42.40
2018-12-14T09:30:27.121Z,40.73
2018-12-14T09:32:56.098Z,47.90
2018-12-14T09:35:25.066Z,43.47
2018-12-14T09:37:54.072Z,53.27
2018-12-14T09:40:23.198Z,45.50
2018-12-14T09:42:52.155Z,46.63
2018-12-14T09:45:21.057Z,41.20
2018-12-14T09:47:50.058Z,45.70
2018-12-14T09:50:18.952Z,45.07
2018-12-14T09:52:47.924Z,46.13
2018-12-14T09:55:16.807Z,52.73
2018-12-14T09:57:45.705Z,52.13
2018-12-14T10:00:14.699Z,47.10
2018-12-14T10:02:43.714Z,49.13
2018-12-14T10:05:12.792Z,44.57
2018-12-14T10:07:46.823Z,50.37
2018-12-14T10:10:12.973Z,49.10
2018-12-14T10:12:41.938Z,44.13
2018-12-14T10:15:10.941Z,54.03
2018-12-14T10:17:39.927Z,53.50
2018-12-14T10:20:10.125Z,50.97
2018-12-14T10:22:41.622Z,61.77
2018-12-14T10:25:10.189Z,52.20
2018-12-14T10:27:39.189Z,50.63
2018-12-14T10:30:08.621Z,46.57
2018-12-14T10:32:37.356Z,50.37
2018-12-14T10:35:07.622Z,47.70
2018-12-14T10:37:36.374Z,52.50
2018-12-14T10:40:06.044Z,44.57
2018-12-14T10:42:35.071Z,54.90
2018-12-14T10:45:04.269Z,50.30
2018-12-14T10:47:33.286Z,52.70
2018-12-14T10:50:02.234Z,55.50
2018-12-14T10:52:31.158Z,54.30
2018-12-14T10:55:00.303Z,60.03
2018-12-14T10:57:29.244Z,57.53
2018-12-14T10:59:58.239Z,55.43
2018-12-14T11:02:27.225Z,56.77
2018-12-14T11:04:56.095Z,53.20
2018-12-14T11:07:25.004Z,50.70
2018-12-14T11:09:53.908Z,52.13
2018-12-14T11:12:22.884Z,56.63
2018-12-14T11:14:51.789Z,53.30
2018-12-14T11:17:20.755Z,55.17
2018-12-14T11:19:49.764Z,56.53
2018-12-14T11:22:18.677Z,52.20
2018-12-14T11:24:47.655Z,54.53
2018-12-14T11:27:16.648Z,52.23
2018-12-14T11:29:45.626Z,48.90
2018-12-14T11:32:14.542Z,53.27
2018-12-14T11:34:43.663Z,56.63
2018-12-14T11:37:12.658Z,49.43
2018-12-14T11:39:41.648Z,45.13
2018-12-14T11:42:10.645Z,58.20
2018-12-14T11:44:39.833Z,50.50
2018-12-14T11:47:08.802Z,54.93
2018-12-14T11:49:37.902Z,56.53
2018-12-14T11:52:07.093Z,51.30
2018-12-14T11:54:36.125Z,57.47
2018-12-14T11:57:05.099Z,52.50
2018-12-14T11:59:34.226Z,42.70
2018-12-14T12:02:03.191Z,44.43
2018-12-14T12:04:32.173Z,52.33
2018-12-14T12:07:01.252Z,43.57
2018-12-14T12:09:30.250Z,44.23
2018-12-14T12:11:59.263Z,46.47
2018-12-14T12:14:28.341Z,44.73
2018-12-14T12:16:57.426Z,42.23
2018-12-14T12:19:26.317Z,48.63
2018-12-14T12:21:55.438Z,48.47
2018-12-14T12:24:24.453Z,41.07
2018-12-14T12:26:53.490Z,43.70
2018-12-14T12:29:22.423Z,44.70
2018-12-14T12:31:51.338Z,41.53
2018-12-14T12:34:20.294Z,39.07
2018-12-14T12:36:49.178Z,37.57
2018-12-14T12:39:18.190Z,37.20
2018-12-14T12:41:47.163Z,37.80
2018-12-14T12:44:16.041Z,50.77
2018-12-14T12:46:44.953Z,39.17
2018-12-14T12:49:14.163Z,48.83
2018-12-14T12:51:43.389Z,38.57
2018-12-14T12:54:12.341Z,34.97
2018-12-14T12:56:41.443Z,38.03
2018-12-14T12:59:10.326Z,31.13
2018-12-14T13:01:39.443Z,34.13
2018-12-14T13:04:08.425Z,37.30
2018-12-14T13:06:37.415Z,32.23
2018-12-14T13:09:07.531Z,36.40
2018-12-14T13:11:36.513Z,34.57
2018-12-14T13:14:05.641Z,34.17
2018-12-14T13:16:34.708Z,34.17
2018-12-14T13:19:03.754Z,31.37
2018-12-14T13:21:32.819Z,26.27
2018-12-14T13:24:01.783Z,27.43
2018-12-14T13:26:30.806Z,36.57
2018-12-14T13:28:59.880Z,34.93
2018-12-14T13:31:28.852Z,32.77
2018-12-14T13:33:57.880Z,29.77
2018-12-14T13:36:26.966Z,25.50
2018-12-14T13:38:55.978Z,25.80
2018-12-14T13:41:24.984Z,24.13
2018-12-14T13:43:53.936Z,26.80
2018-12-14T13:46:22.950Z,23.83
2018-12-14T13:48:51.817Z,26.93
2018-12-14T13:51:20.850Z,27.93
2018-12-14T13:53:50.058Z,25.67
2018-12-14T13:56:19.031Z,26.80
2018-12-14T13:58:48.118Z,31.07
2018-12-14T14:01:17.466Z,24.23
2018-12-14T14:03:46.441Z,24.60
2018-12-14T14:06:15.554Z,22.53
2018-12-14T14:08:44.645Z,25.17
2018-12-14T14:11:13.701Z,21.80
2018-12-14T14:13:42.709Z,23.23
2018-12-14T14:16:11.698Z,27.60
2018-12-14T14:18:40.890Z,28.37
2018-12-14T14:21:09.899Z,28.03
2018-12-14T14:23:38.895Z,26.70
2018-12-14T14:26:07.849Z,21.40
2018-12-14T14:28:36.866Z,25.47
2018-12-14T14:31:05.870Z,22.70
2018-12-14T14:33:34.839Z,23.60
2018-12-14T14:36:03.959Z,24.83
2018-12-14T14:38:32.914Z,25.87
2018-12-14T14:41:01.933Z,25.77
2018-12-14T14:43:30.830Z,26.43
2018-12-14T14:45:59.886Z,22.50
2018-12-14T14:48:28.807Z,26.17
2018-12-14T14:50:57.694Z,29.33
2018-12-14T14:53:26.694Z,24.03
2018-12-14T14:55:55.661Z,23.10
2018-12-14T14:58:24.590Z,26.17
2018-12-14T15:00:53.589Z,24.17
2018-12-14T15:03:22.703Z,24.70
2018-12-14T15:05:51.676Z,25.83
2018-12-14T15:08:20.722Z,26.33
2018-12-14T15:10:49.769Z,29.27
2018-12-14T15:13:18.628Z,27.27
2018-12-14T15:15:47.549Z,28.20
2018-12-14T15:18:16.623Z,31.00
2018-12-14T15:20:45.579Z,25.17
2018-12-14T15:23:14.463Z,26.07
2018-12-14T15:25:43.403Z,28.50
2018-12-14T15:28:12.468Z,30.33
2018-12-14T15:30:41.360Z,25.50
2018-12-14T15:33:10.277Z,28.67
2018-12-14T15:35:39.245Z,28.10
2018-12-14T15:38:08.048Z,33.43
2018-12-14T15:40:36.978Z,31.17
2018-12-14T15:43:05.930Z,32.77
2018-12-14T15:45:34.823Z,27.83
2018-12-14T15:48:03.856Z,24.50
2018-12-14T15:50:32.891Z,28.53
2018-12-14T15:53:01.836Z,27.43
2018-12-14T15:55:31.018Z,31.77
2018-12-14T15:57:59.998Z,34.40
2018-12-14T16:00:29.001Z,30.97
2018-12-14T16:05:45.242Z,40.30
2018-12-14T16:08:14.239Z,47.97
2018-12-14T16:10:43.192Z,39.07
2018-12-14T16:13:12.183Z,39.83
2018-12-14T16:15:41.193Z,38.17
2018-12-14T16:18:10.295Z,35.57
2018-12-14T16:20:39.304Z,36.10
2018-12-14T16:23:08.359Z,37.27
2018-12-14T16:25:37.310Z,31.17
2018-12-14T16:28:06.230Z,30.07
2018-12-14T16:30:35.155Z,37.80
2018-12-14T16:33:04.154Z,28.30
2018-12-14T16:35:33.274Z,29.83
2018-12-14T16:38:02.363Z,35.13
2018-12-14T16:40:31.316Z,34.33
2018-12-14T16:43:00.185Z,30.03
2018-12-14T16:45:29.232Z,36.40
2018-12-14T16:47:58.229Z,34.13
2018-12-14T16:50:27.310Z,33.10
2018-12-14T16:52:56.280Z,32.20
2018-12-14T16:55:25.423Z,33.13
2018-12-14T16:57:54.512Z,32.90
2018-12-14T17:00:23.587Z,35.67
2018-12-14T17:02:52.714Z,34.60
2018-12-14T17:05:21.775Z,38.87
2018-12-14T17:07:50.898Z,42.50
2018-12-14T17:10:20.081Z,46.63
2018-12-14T17:12:49.291Z,38.00
2018-12-14T17:15:18.275Z,37.30
2018-12-14T17:17:47.461Z,43.77
2018-12-14T17:20:16.449Z,43.30
2018-12-14T17:22:45.398Z,43.27
2018-12-14T17:25:14.320Z,48.67
2018-12-14T17:27:43.544Z,42.57
2018-12-14T17:30:12.368Z,41.57
2018-12-14T17:32:41.230Z,47.30
2018-12-14T17:35:10.396Z,48.10
2018-12-14T17:37:39.393Z,47.03
2018-12-14T17:40:08.609Z,48.07
2018-12-14T17:42:37.601Z,48.73
2018-12-14T17:45:06.783Z,47.30
2018-12-14T17:47:35.877Z,45.27
2018-12-14T17:50:05.594Z,54.13
2018-12-14T17:52:34.702Z,51.40
2018-12-14T17:55:03.919Z,50.87
2018-12-14T17:57:32.921Z,47.37
2018-12-14T18:00:01.911Z,44.70
2018-12-14T18:02:30.983Z,38.00
2018-12-14T18:05:00.044Z,41.30
2018-12-14T18:07:28.985Z,43.43
2018-12-14T18:09:57.987Z,41.63
2018-12-14T18:12:27.057Z,41.70
2018-12-14T18:14:55.893Z,45.23
2018-12-14T18:17:24.783Z,41.30
2018-12-14T18:19:53.725Z,48.80
2018-12-14T18:22:23.057Z,45.90
2018-12-14T18:24:52.121Z,42.60
2018-12-14T18:27:21.360Z,42.13
2018-12-14T18:29:50.442Z,43.37
2018-12-14T18:32:19.440Z,41.50
2018-12-14T18:34:48.498Z,43.70
2018-12-14T18:37:17.610Z,45.90
2018-12-14T18:39:46.624Z,50.63
2018-12-14T18:42:15.702Z,47.90
2018-12-14T18:44:44.889Z,42.90
2018-12-14T18:47:14.011Z,54.00
2018-12-14T18:49:43.003Z,46.77
2018-12-14T18:52:11.989Z,47.23
2018-12-14T18:54:41.089Z,44.90
2018-12-14T18:57:10.301Z,45.33
2018-12-14T18:59:39.168Z,45.30
2018-12-14T19:02:08.254Z,42.17
2018-12-14T19:04:37.277Z,46.70
2018-12-14T19:07:06.368Z,40.60
2018-12-14T19:09:35.902Z,48.60
2018-12-14T19:12:04.937Z,44.87
2018-12-14T19:14:34.024Z,45.53
2018-12-14T19:17:03.182Z,43.67
2018-12-14T19:19:32.238Z,50.70
2018-12-14T19:22:01.224Z,43.33
2018-12-14T19:24:30.335Z,48.13
2018-12-14T19:26:59.438Z,40.97
2018-12-14T19:29:28.520Z,42.70
2018-12-14T19:31:57.613Z,35.70
2018-12-14T19:34:31.421Z,38.27
2018-12-14T19:36:57.545Z,46.17
2018-12-14T19:39:26.829Z,41.03
2018-12-14T19:41:55.955Z,40.10
2018-12-14T19:44:25.131Z,44.67
2018-12-14T19:46:54.138Z,38.63
2018-12-14T19:49:23.687Z,49.20
2018-12-14T19:51:53.246Z,42.60
2018-12-14T19:54:22.646Z,43.40
2018-12-14T19:56:51.980Z,36.10
2018-12-14T19:59:21.175Z,34.43
2018-12-14T20:01:50.249Z,39.83
2018-12-14T20:04:19.338Z,36.53
2018-12-14T20:06:48.357Z,40.60
2018-12-14T20:09:17.602Z,43.17
2018-12-14T20:11:46.645Z,46.63
2018-12-14T20:14:15.631Z,44.57
2018-12-14T20:16:44.722Z,42.30
2018-12-14T20:19:13.722Z,37.60
2018-12-14T20:21:42.709Z,43.10
2018-12-14T20:24:11.689Z,40.83
2018-12-14T20:26:40.641Z,35.57
2018-12-14T20:29:09.553Z,39.53
2018-12-14T20:31:38.601Z,36.40
2018-12-14T20:34:07.578Z,36.93
2018-12-14T20:36:36.481Z,43.33
2018-12-14T20:39:07.410Z,39.13
2018-12-14T20:41:36.599Z,37.70
2018-12-14T20:44:05.816Z,37.23
2018-12-14T20:46:34.802Z,40.43
2018-12-14T20:49:03.910Z,36.53
2018-12-14T20:51:32.961Z,40.97
2018-12-14T20:54:01.881Z,37.97
2018-12-14T20:56:30.734Z,36.13
2018-12-14T20:58:59.850Z,35.47
2018-12-14T21:01:29.088Z,32.97
2018-12-14T21:03:58.286Z,35.93
2018-12-14T21:06:27.180Z,38.10
2018-12-14T21:08:56.265Z,39.50
2018-12-14T21:11:25.213Z,37.13
2018-12-14T21:13:54.231Z,39.37
2018-12-14T21:16:26.126Z,38.05
2018-12-14T21:18:54.601Z,37.77
2018-12-14T21:21:23.432Z,37.80
2018-12-14T21:23:52.653Z,37.30
2018-12-14T21:26:21.738Z,33.43
2018-12-14T21:28:50.728Z,34.40
2018-12-14T21:31:19.661Z,37.10
2018-12-14T21:33:48.721Z,36.37
2018-12-14T21:36:17.848Z,38.87
2018-12-14T21:38:46.909Z,42.23
2018-12-14T21:41:15.945Z,35.67
2018-12-14T21:43:45.001Z,33.90
2018-12-14T21:46:14.113Z,33.43
2018-12-14T21:48:43.227Z,38.10
2018-12-14T21:51:12.319Z,41.00
2018-12-14T21:53:41.375Z,34.20
2018-12-14T21:56:10.410Z,35.50
2018-12-14T21:58:39.382Z,39.67
2018-12-14T22:01:08.591Z,35.83
2018-12-14T22:03:37.553Z,29.70
2018-12-14T22:06:06.842Z,37.28
2018-12-14T22:08:35.874Z,36.00
2018-12-14T22:11:05.067Z,35.53
2018-12-14T22:13:34.112Z,30.33
2018-12-14T22:16:03.028Z,31.80
2018-12-14T22:18:32.041Z,34.77
2018-12-14T22:21:01.188Z,34.70
2018-12-14T22:23:30.133Z,36.70
2018-12-14T22:25:59.213Z,32.63
2018-12-14T22:28:28.137Z,32.63
2018-12-14T22:30:57.238Z,33.03
2018-12-14T22:33:26.297Z,35.77
2018-12-14T22:35:55.299Z,34.97
2018-12-14T22:38:24.298Z,33.83
2018-12-14T22:40:53.729Z,38.17
2018-12-14T22:43:22.782Z,35.23
2018-12-14T22:45:51.676Z,35.23
2018-12-14T22:48:20.750Z,31.57
2018-12-14T22:50:49.760Z,34.57
2018-12-14T22:53:18.695Z,33.93
2018-12-14T22:55:47.747Z,33.40
2018-12-14T22:58:16.798Z,38.47
2018-12-14T23:00:51.351Z,33.97
2018-12-14T23:03:20.589Z,41.60
2018-12-14T23:05:50.166Z,41.67
2018-12-14T23:08:19.120Z,36.40
2018-12-14T23:10:48.206Z,32.50
2018-12-14T23:13:17.254Z,35.53
2018-12-14T23:15:46.163Z,31.57
2018-12-14T23:18:15.171Z,35.17
2018-12-14T23:20:44.262Z,37.67
2018-12-14T23:23:13.391Z,40.13
2018-12-14T23:25:42.459Z,37.90
2018-12-14T23:28:11.544Z,35.60
2018-12-14T23:30:40.495Z,38.00
2018-12-14T23:33:09.615Z,40.47
2018-12-14T23:35:38.895Z,38.28
2018-12-14T23:38:08.103Z,33.53
2018-12-14T23:40:37.033Z,36.83
2018-12-14T23:43:07.162Z,31.27
2018-12-14T23:45:36.165Z,38.25
2018-12-14T23:48:05.645Z,38.35
2018-12-14T23:50:34.775Z,35.77
2018-12-14T23:53:03.882Z,39.57
2018-12-14T23:55:33.028Z,36.47
2018-12-14T23:58:02.232Z,42.10
